createdAt,value
2018-02-03T00:02:02.288Z,101050.30
2018-02-03T00:04:30.612Z,101052.84
2018-02-03T00:06:58.928Z,101055.44
2018-02-03T00:09:27.262Z,101046.81
2018-02-03T00:11:55.572Z,101042.34
2018-02-03T00:14:23.884Z,101045.20
2018-02-03T00:16:52.220Z,101046.86
2018-02-03T00:19:20.527Z,101044.08
2018-02-03T00:21:48.860Z,101050.45
2018-02-03T00:24:18.911Z,101047.93
2018-02-03T00:26:47.201Z,101038.01
2018-02-03T00:29:15.514Z,101038.78
2018-02-03T00:31:43.813Z,101037.55
2018-02-03T00:34:12.199Z,101034.89
2018-02-03T00:36:40.502Z,101034.25
2018-02-03T00:39:08.799Z,101029.45
2018-02-03T00:41:37.130Z,101030.59
2018-02-03T00:44:05.459Z,101030.78
2018-02-03T00:46:34.262Z,101026.87
2018-02-03T00:49:02.570Z,101026.44
2018-02-03T00:51:30.878Z,101035.63
2018-02-03T00:53:59.182Z,101032.16
2018-02-03T00:56:28.299Z,101023.55
2018-02-03T00:58:56.684Z,101019.69
2018-02-03T01:01:24.997Z,101011.91
2018-02-03T01:03:53.297Z,101011.39
2018-02-03T01:06:21.600Z,101009.91
2018-02-03T01:08:51.626Z,101005.84
2018-02-03T01:11:20.700Z,101002.05
2018-02-03T01:13:49.019Z,101006.59
2018-02-03T01:16:17.318Z,101004.35
2018-02-03T01:18:45.651Z,101003.94
2018-02-03T01:21:13.971Z,100996.50
2018-02-03T01:23:42.278Z,100998.67
2018-02-03T01:26:10.619Z,100993.04
2018-02-03T01:28:39.720Z,100991.45
2018-02-03T01:31:08.118Z,100996.34
2018-02-03T01:33:36.432Z,100998.08
2018-02-03T01:36:04.723Z,100999.31
2018-02-03T01:38:33.038Z,100997.98
2018-02-03T01:41:02.119Z,101001.40
2018-02-03T01:43:30.549Z,100996.37
2018-02-03T01:45:58.930Z,100989.41
2018-02-03T01:48:27.315Z,100986.92
2018-02-03T01:50:55.632Z,100998.11
2018-02-03T01:53:23.980Z,100990.52
2018-02-03T01:55:52.360Z,100986.19
2018-02-03T01:58:20.662Z,100985.77
2018-02-03T02:00:49.027Z,100977.50
2018-02-03T02:03:17.320Z,100974.77
2018-02-03T02:05:45.625Z,100969.61
2018-02-03T02:08:13.928Z,100968.62
2018-02-03T02:10:42.300Z,100962.59
2018-02-03T02:13:10.624Z,100958.78
2018-02-03T02:15:39.020Z,100962.08
2018-02-03T02:18:07.332Z,100962.34
2018-02-03T02:20:35.623Z,100965.39
2018-02-03T02:23:04.706Z,100965.06
2018-02-03T02:25:33.035Z,100969.86
2018-02-03T02:28:02.138Z,100968.77
2018-02-03T02:30:31.219Z,100965.56
2018-02-03T02:32:59.541Z,100963.67
2018-02-03T02:35:27.925Z,100962.48
2018-02-03T02:37:56.224Z,100958.22
2018-02-03T02:40:24.590Z,100954.80
2018-02-03T02:42:52.835Z,100955.87
2018-02-03T02:45:21.944Z,100953.56
2018-02-03T02:47:51.045Z,100953.90
2018-02-03T02:50:19.361Z,100946.95
2018-02-03T02:52:47.700Z,100949.19
2018-02-03T02:55:16.012Z,100945.96
2018-02-03T02:57:44.313Z,100948.53
2018-02-03T03:00:12.607Z,100938.77
2018-02-03T03:02:40.932Z,100938.93
2018-02-03T03:05:09.979Z,100935.86
2018-02-03T03:07:38.299Z,100932.47
2018-02-03T03:10:06.702Z,100931.06
2018-02-03T03:12:35.763Z,100927.67
2018-02-03T03:15:04.060Z,100925.03
2018-02-03T03:17:32.367Z,100924.09
2018-02-03T03:20:01.481Z,100923.27
2018-02-03T03:22:29.803Z,100921.95
2018-02-03T03:24:58.137Z,100917.39
2018-02-03T03:27:27.179Z,100918.97
2018-02-03T03:29:55.485Z,100911.84
2018-02-03T03:32:23.794Z,100901.50
2018-02-03T03:34:52.853Z,100895.79
2018-02-03T03:37:21.189Z,100892.81
2018-02-03T03:39:49.519Z,100889.58
2018-02-03T03:42:17.817Z,100880.98
2018-02-03T03:44:46.147Z,100885.45
2018-02-03T03:47:14.459Z,100876.92
2018-02-03T03:49:42.751Z,100879.23
2018-02-03T03:52:11.077Z,100876.34
2018-02-03T03:54:40.217Z,100872.53
2018-02-03T03:57:09.329Z,100867.41
2018-02-03T03:59:37.637Z,100870.13
2018-02-03T04:02:06.704Z,100874.94
2018-02-03T04:04:35.025Z,100871.63
2018-02-03T04:07:03.336Z,100866.24
2018-02-03T04:09:31.637Z,100862.38
2018-02-03T04:11:59.929Z,100860.89
2018-02-03T04:14:28.905Z,100863.05
2018-02-03T04:16:57.228Z,100857.25
2018-02-03T04:19:26.364Z,100863.79
2018-02-03T04:21:54.645Z,100859.23
2018-02-03T04:24:22.945Z,100849.47
2018-02-03T04:26:51.245Z,100849.64
2018-02-03T04:29:19.587Z,100843.84
2018-02-03T04:31:48.015Z,100836.95
2018-02-03T04:34:16.361Z,100839.52
2018-02-03T04:36:44.757Z,100837.52
2018-02-03T04:39:13.051Z,100835.17
2018-02-03T04:41:41.361Z,100830.28
2018-02-03T04:44:09.673Z,100832.27
2018-02-03T04:46:38.017Z,100830.45
2018-02-03T04:49:06.322Z,100829.30
2018-02-03T04:51:35.381Z,100827.06
2018-02-03T04:54:03.705Z,100826.39
2018-02-03T04:56:32.771Z,100815.75
2018-02-03T04:59:01.078Z,100818.82
2018-02-03T05:01:30.192Z,100815.92
2018-02-03T05:03:59.267Z,100815.02
2018-02-03T05:06:27.560Z,100811.88
2018-02-03T05:08:56.611Z,100808.56
2018-02-03T05:11:24.898Z,100816.25
2018-02-03T05:13:53.207Z,100807.56
2018-02-03T05:16:21.538Z,100806.98
2018-02-03T05:18:49.877Z,100803.10
2018-02-03T05:21:18.196Z,100795.07
2018-02-03T05:23:46.506Z,100792.92
2018-02-03T05:26:14.800Z,100791.88
2018-02-03T05:28:43.119Z,100786.25
2018-02-03T05:31:12.189Z,100787.33
2018-02-03T05:33:40.495Z,100784.81
2018-02-03T05:36:08.826Z,100780.75
2018-02-03T05:38:37.121Z,100783.48
2018-02-03T05:41:05.415Z,100778.42
2018-02-03T05:43:46.598Z,100784.84
2018-02-03T05:46:14.943Z,100784.59
2018-02-03T05:48:43.288Z,100775.57
2018-02-03T05:51:11.622Z,100779.79
2018-02-03T05:53:39.934Z,100780.53
2018-02-03T05:56:08.248Z,100772.50
2018-02-03T05:58:36.558Z,100771.50
2018-02-03T06:01:04.912Z,100763.98
2018-02-03T06:03:33.208Z,100764.97
2018-02-03T06:06:01.504Z,100768.37
2018-02-03T06:08:29.804Z,100759.59
2018-02-03T06:10:58.126Z,100759.67
2018-02-03T06:13:27.240Z,100762.16
2018-02-03T06:15:55.536Z,100762.56
2018-02-03T06:18:23.830Z,100757.50
2018-02-03T06:20:52.148Z,100762.35
2018-02-03T06:23:21.228Z,100757.80
2018-02-03T06:25:49.548Z,100768.48
2018-02-03T06:28:18.685Z,100764.49
2018-02-03T06:30:46.996Z,100762.25
2018-02-03T06:33:15.314Z,100758.11
2018-02-03T06:35:43.646Z,100765.56
2018-02-03T06:38:11.992Z,100753.16
2018-02-03T06:40:40.286Z,100751.58
2018-02-03T06:43:08.610Z,100760.45
2018-02-03T06:45:36.920Z,100755.47
2018-02-03T06:48:06.010Z,100761.77
2018-02-03T06:50:35.685Z,100763.76
2018-02-03T06:53:04.034Z,100756.35
2018-02-03T06:55:32.924Z,100757.93
2018-02-03T06:58:01.270Z,100756.61
2018-02-03T07:00:29.590Z,100755.91
2018-02-03T07:02:57.925Z,100759.72
2018-02-03T07:05:26.236Z,100761.06
2018-02-03T07:07:55.352Z,100757.62
2018-02-03T07:10:24.423Z,100754.56
2018-02-03T07:12:53.531Z,100759.86
2018-02-03T07:15:22.616Z,100753.66
2018-02-03T07:17:50.922Z,100752.16
2018-02-03T07:20:19.238Z,100761.84
2018-02-03T07:22:47.542Z,100765.61
2018-02-03T07:25:15.839Z,100755.68
2018-02-03T07:27:44.173Z,100756.42
2018-02-03T07:30:12.480Z,100762.05
2018-02-03T07:32:40.790Z,100763.63
2018-02-03T07:35:09.878Z,100763.95
2018-02-03T07:37:38.214Z,100760.31
2018-02-03T07:40:06.532Z,100764.58
2018-02-03T07:42:34.874Z,100756.63
2018-02-03T07:45:03.206Z,100753.36
2018-02-03T07:47:31.523Z,100758.07
2018-02-03T07:49:59.854Z,100750.28
2018-02-03T07:52:28.233Z,100753.18
2018-02-03T07:54:56.538Z,100749.33
2018-02-03T07:57:24.864Z,100747.17
2018-02-03T07:59:53.185Z,100746.50
2018-02-03T08:02:21.473Z,100755.56
2018-02-03T08:04:49.770Z,100749.17
2018-02-03T08:07:18.063Z,100749.09
2018-02-03T08:09:46.376Z,100756.88
2018-02-03T08:12:14.704Z,100761.33
2018-02-03T08:14:43.106Z,100754.01
2018-02-03T08:17:12.191Z,100751.84
2018-02-03T08:19:40.533Z,100755.80
2018-02-03T08:22:08.844Z,100753.99
2018-02-03T08:24:37.328Z,100745.89
2018-02-03T08:27:05.690Z,100760.55
2018-02-03T08:29:34.044Z,100763.20
2018-02-03T08:32:02.361Z,100762.11
2018-02-03T08:34:30.681Z,100767.33
2018-02-03T08:36:59.776Z,100764.59
2018-02-03T08:39:29.137Z,100768.24
2018-02-03T08:41:57.448Z,100761.78
2018-02-03T08:44:25.746Z,100757.38
2018-02-03T08:46:54.129Z,100763.91
2018-02-03T08:49:23.236Z,100764.28
2018-02-03T08:51:52.330Z,100757.23
2018-02-03T08:54:21.429Z,100759.72
2018-02-03T08:56:50.507Z,100754.16
2018-02-03T08:59:18.805Z,100752.41
2018-02-03T09:01:47.188Z,100750.33
2018-02-03T09:04:15.510Z,100748.70
2018-02-03T09:06:43.834Z,100749.69
2018-02-03T09:09:12.177Z,100746.20
2018-02-03T09:14:40.790Z,100741.40
2018-02-03T09:17:09.090Z,100734.81
2018-02-03T09:19:37.400Z,100732.76
2018-02-03T09:22:06.526Z,100737.84
2018-02-03T09:24:34.874Z,100733.86
2018-02-03T09:27:03.196Z,100733.16
2018-02-03T09:29:31.571Z,100736.55
2018-02-03T09:32:10.454Z,100736.01
2018-02-03T09:45:55.183Z,100720.69
2018-02-03T09:48:23.568Z,100717.89
2018-02-03T09:50:51.896Z,100718.89
2018-02-03T09:53:21.102Z,100720.16
2018-02-03T09:55:49.476Z,100713.84
2018-02-03T09:58:18.569Z,100713.30
2018-02-03T10:00:46.922Z,100721.63
2018-02-03T10:03:15.252Z,100715.58
2018-02-03T10:05:43.618Z,100716.72
2018-02-03T10:08:12.726Z,100713.53
2018-02-03T10:10:41.014Z,100711.10
2018-02-03T10:13:09.340Z,100712.29
2018-02-03T10:15:37.706Z,100703.16
2018-02-03T10:18:06.108Z,100699.71
2018-02-03T10:20:34.458Z,100703.56
2018-02-03T10:23:02.787Z,100698.69
2018-02-03T10:25:31.198Z,100693.97
2018-02-03T10:27:59.566Z,100686.84
2018-02-03T10:30:28.756Z,100683.66
2018-02-03T10:32:58.022Z,100681.98
2018-02-03T10:35:26.351Z,100688.20
2018-02-03T10:37:56.081Z,100690.81
2018-02-03T10:40:24.422Z,100700.30
2018-02-03T10:42:52.846Z,100697.16
2018-02-03T10:45:21.200Z,100699.05
2018-02-03T10:47:49.534Z,100698.02
2018-02-03T10:50:17.848Z,100705.30
2018-02-03T10:52:47.803Z,100697.25
2018-02-03T10:55:16.178Z,100698.66
2018-02-03T10:57:44.578Z,100695.09
2018-02-03T11:00:13.728Z,100696.88
2018-02-03T11:02:42.078Z,100702.00
2018-02-03T11:05:10.375Z,100697.87
2018-02-03T11:07:38.791Z,100693.14
2018-02-03T11:10:07.946Z,100698.42
2018-02-03T11:12:36.359Z,100699.23
2018-02-03T11:15:04.684Z,100702.47
2018-02-03T11:17:33.175Z,100706.08
2018-02-03T11:20:01.478Z,100709.17
2018-02-03T11:22:29.822Z,100704.66
2018-02-03T11:24:59.041Z,100701.50
2018-02-03T11:27:28.392Z,100696.32
2018-02-03T11:29:56.986Z,100697.86
2018-02-03T11:32:26.078Z,100692.99
2018-02-03T11:34:54.413Z,100696.28
2018-02-03T11:37:22.755Z,100690.66
2018-02-03T11:39:51.106Z,100686.49
2018-02-03T11:42:19.425Z,100688.65
2018-02-03T11:44:48.491Z,100693.06
2018-02-03T11:47:16.782Z,100692.74
2018-02-03T11:49:45.070Z,100691.64
2018-02-03T11:52:13.370Z,100692.51
2018-02-03T11:54:42.426Z,100693.23
2018-02-03T11:57:10.714Z,100690.88
2018-02-03T11:59:39.060Z,100694.65
2018-02-03T12:02:08.068Z,100684.62
2018-02-03T12:04:36.412Z,100689.91
2018-02-03T12:07:05.138Z,100696.02
2018-02-03T12:09:33.447Z,100688.37
2018-02-03T12:12:01.779Z,100693.55
2018-02-03T12:14:30.134Z,100693.71
2018-02-03T12:16:59.880Z,100695.98
2018-02-03T12:19:28.250Z,100689.18
2018-02-03T12:21:56.660Z,100694.72
2018-02-03T12:24:25.026Z,100693.25
2018-02-03T12:26:53.397Z,100694.64
2018-02-03T12:29:21.723Z,100690.67
2018-02-03T12:31:50.032Z,100689.62
2018-02-03T12:34:19.126Z,100687.73
2018-02-03T12:36:48.288Z,100686.98
2018-02-03T12:39:16.634Z,100685.50
2018-02-03T12:41:44.954Z,100692.75
2018-02-03T12:44:13.264Z,100688.36
2018-02-03T12:46:41.725Z,100692.59
2018-02-03T12:49:10.182Z,100693.17
2018-02-03T12:51:39.423Z,100686.95
2018-02-03T12:54:07.832Z,100689.34
2018-02-03T12:56:36.140Z,100686.88
2018-02-03T12:59:05.545Z,100691.09
2018-02-03T13:01:33.924Z,100690.58
2018-02-03T13:04:02.314Z,100684.21
2018-02-03T13:06:30.724Z,100685.50
2018-02-03T13:08:59.258Z,100682.61
2018-02-03T13:11:28.431Z,100679.55
2018-02-03T13:13:56.780Z,100676.97
2018-02-03T13:16:25.191Z,100675.05
2018-02-03T13:18:53.558Z,100677.25
2018-02-03T13:21:21.893Z,100681.00
2018-02-03T13:23:50.212Z,100678.42
2018-02-03T13:26:18.565Z,100674.44
2018-02-03T13:28:46.941Z,100676.70
2018-02-03T13:31:15.275Z,100674.58
2018-02-03T13:33:43.582Z,100682.02
2018-02-03T13:36:12.663Z,100673.11
2018-02-03T13:38:40.995Z,100675.59
2018-02-03T13:41:09.374Z,100677.09
2018-02-03T13:43:37.668Z,100679.39
2018-02-03T13:46:06.026Z,100682.84
2018-02-03T13:48:34.337Z,100681.09
2018-02-03T13:51:03.455Z,100679.86
2018-02-03T13:53:31.798Z,100683.34
2018-02-03T13:56:00.260Z,100677.19
2018-02-03T13:58:29.385Z,100677.58
2018-02-03T14:00:57.661Z,100680.13
2018-02-03T14:03:26.092Z,100676.16
2018-02-03T14:05:54.470Z,100674.23
2018-02-03T14:08:22.794Z,100670.14
2018-02-03T14:10:51.204Z,100669.05
2018-02-03T14:13:19.506Z,100669.36
2018-02-03T14:15:47.829Z,100676.78
2018-02-03T14:18:16.139Z,100684.35
2018-02-03T14:20:44.429Z,100678.92
2018-02-03T14:23:12.975Z,100675.67
2018-02-03T14:25:42.062Z,100669.80
2018-02-03T14:28:11.697Z,100681.57
2018-02-03T14:30:40.044Z,100682.77
2018-02-03T14:33:08.370Z,100680.24
2018-02-03T14:35:36.713Z,100685.14
2018-02-03T14:38:05.804Z,100681.42
2018-02-03T14:40:34.217Z,100676.42
2018-02-03T14:43:04.950Z,100672.15
2018-02-03T14:45:36.134Z,100679.51
2018-02-03T14:48:04.575Z,100682.14
2018-02-03T14:50:33.595Z,100684.42
2018-02-03T14:53:02.105Z,100675.59
2018-02-03T14:55:30.869Z,100685.50
2018-02-03T14:57:59.522Z,100677.02
2018-02-03T15:00:29.509Z,100685.22
2018-02-03T15:02:58.808Z,100685.47
2018-02-03T15:05:27.138Z,100684.92
2018-02-03T15:07:56.485Z,100684.89
2018-02-03T15:10:28.700Z,100688.75
2018-02-03T15:12:57.242Z,100691.79
2018-02-03T15:15:25.604Z,100698.20
2018-02-03T15:17:54.059Z,100695.96
2018-02-03T15:20:24.099Z,100704.00
2018-02-03T15:22:53.244Z,100705.70
2018-02-03T15:25:22.463Z,100700.34
2018-02-03T15:27:50.977Z,100702.82
2018-02-03T15:30:19.624Z,100703.23
2018-02-03T15:32:47.981Z,100705.62
2018-02-03T15:35:16.341Z,100698.82
2018-02-03T15:37:44.731Z,100710.29
2018-02-03T15:40:13.168Z,100706.90
2018-02-03T15:42:41.585Z,100709.05
2018-02-03T16:23:01.408Z,100761.88
2018-02-03T16:25:29.742Z,100768.89
2018-02-03T16:27:58.817Z,100761.25
2018-02-03T16:30:27.135Z,100772.70
2018-02-03T16:32:55.431Z,100775.87
2018-02-03T16:35:23.799Z,100779.11
2018-02-03T16:37:52.128Z,100791.16
2018-02-03T16:40:20.457Z,100785.00
2018-02-03T16:42:49.273Z,100800.60
2018-02-03T16:45:18.409Z,100804.52
2018-02-03T16:47:46.709Z,100808.50
2018-02-03T16:50:15.018Z,100805.02
2018-02-03T16:52:43.347Z,100815.44
2018-02-03T16:55:11.661Z,100825.49
2018-02-03T16:57:40.721Z,100816.97
2018-02-03T17:00:09.104Z,100827.71
2018-02-03T17:02:37.409Z,100830.57
2018-02-03T17:05:05.715Z,100835.29
2018-02-03T17:07:34.037Z,100841.30
2018-02-03T17:10:02.345Z,100844.55
2018-02-03T17:12:31.490Z,100848.78
2018-02-03T18:04:31.197Z,100924.06
2018-02-03T18:07:05.122Z,100917.77
2018-02-03T18:09:34.303Z,100920.98
2018-02-03T18:12:03.515Z,100921.67
2018-02-03T18:14:31.838Z,100925.04
2018-02-03T18:17:00.409Z,100926.83
2018-02-03T18:19:30.258Z,100940.94
2018-02-03T18:21:58.577Z,100936.48
2018-02-03T18:24:27.542Z,100943.38
2018-02-03T18:26:56.211Z,100946.92
2018-02-03T18:29:24.530Z,100948.81
2018-02-03T18:31:54.416Z,100948.63
2018-02-03T18:34:22.814Z,100955.50
2018-02-03T18:36:51.993Z,100957.73
2018-02-03T18:39:20.869Z,100964.77
2018-02-03T18:41:49.175Z,100960.80
2018-02-03T18:44:17.570Z,100968.80
2018-02-03T18:46:45.956Z,100966.13
2018-02-03T18:49:14.293Z,100973.19
2018-02-03T18:51:42.617Z,100982.36
2018-02-03T18:54:10.987Z,100983.08
2018-02-03T18:56:39.297Z,100977.30
2018-02-03T18:59:07.679Z,100982.66
2018-02-03T19:01:36.027Z,100987.52
2018-02-03T19:04:04.406Z,100994.50
2018-02-03T19:06:32.701Z,100993.87
2018-02-03T19:09:01.036Z,100993.03
2018-02-03T19:11:30.120Z,101004.20
2018-02-03T19:13:59.213Z,101008.62
2018-02-03T19:16:27.580Z,101012.51
2018-02-03T19:18:55.877Z,101018.70
2018-02-03T19:21:24.962Z,101018.70
2018-02-03T19:23:54.119Z,101022.84
2018-02-03T19:26:22.417Z,101028.24
2018-02-03T19:28:50.832Z,101034.77
2018-02-03T19:31:19.164Z,101041.95
2018-02-03T19:33:47.490Z,101046.97
2018-02-03T19:36:15.814Z,101046.25
2018-02-03T19:38:44.927Z,101056.33
2018-02-03T19:41:13.256Z,101056.25
2018-02-03T19:43:41.551Z,101063.69
2018-02-03T19:46:10.674Z,101060.78
2018-02-03T19:48:38.995Z,101066.26
2018-02-03T19:51:07.552Z,101066.19
2018-02-03T19:53:35.907Z,101071.47
2018-02-03T19:56:05.577Z,101081.47
2018-02-03T19:58:33.912Z,101078.19
2018-02-03T20:01:03.010Z,101091.81
2018-02-03T20:03:32.134Z,101091.89
2018-02-03T20:06:00.483Z,101094.95
2018-02-03T20:08:29.718Z,101096.34
2018-02-03T20:10:58.097Z,101098.50
2018-02-03T20:13:26.427Z,101100.99
2018-02-03T20:15:54.765Z,101108.62
2018-02-03T20:18:23.115Z,101113.42
2018-02-03T20:20:52.225Z,101123.12
2018-02-03T20:23:21.319Z,101129.43
2018-02-03T20:25:50.416Z,101128.26
2018-02-03T20:28:18.728Z,101131.81
2018-02-03T20:30:47.040Z,101132.48
2018-02-03T20:33:15.344Z,101134.72
2018-02-03T20:35:44.584Z,101137.63
2018-02-03T20:38:12.911Z,101141.17
2018-02-03T20:40:41.213Z,101146.69
2018-02-03T20:43:09.540Z,101148.50
2018-02-03T20:45:37.887Z,101149.48
2018-02-03T20:48:07.015Z,101153.64
2018-02-03T20:50:35.535Z,101164.36
2018-02-03T20:53:03.871Z,101166.41
2018-02-03T20:55:32.946Z,101172.06
2018-02-03T20:58:02.259Z,101178.52
2018-02-03T21:00:30.586Z,101181.45
2018-02-03T21:02:58.896Z,101187.04
2018-02-03T21:05:27.216Z,101194.82
2018-02-03T21:07:56.320Z,101203.16
2018-02-03T21:10:25.745Z,101217.92
2018-02-03T21:12:54.061Z,101213.69
2018-02-03T21:15:23.126Z,101215.77
2018-02-03T21:17:52.216Z,101224.95
2018-02-03T21:20:21.298Z,101226.84
2018-02-03T21:22:50.404Z,101233.93
2018-02-03T21:25:19.513Z,101236.91
2018-02-03T21:27:48.600Z,101246.51
2018-02-03T21:30:16.932Z,101247.61
2018-02-03T21:32:45.256Z,101253.43
2018-02-03T21:35:14.403Z,101256.56
2018-02-03T21:37:42.722Z,101262.36
2018-02-03T21:40:11.062Z,101262.36
2018-02-03T21:42:39.420Z,101262.99
2018-02-03T21:45:08.502Z,101275.48
2018-02-03T21:47:36.800Z,101286.20
2018-02-03T21:50:06.631Z,101296.78
2018-02-03T21:52:34.918Z,101295.42
2018-02-03T21:55:03.288Z,101296.61
2018-02-03T21:57:32.394Z,101306.00
2018-02-03T22:00:00.735Z,101307.13
2018-02-03T22:02:29.028Z,101322.47
2018-02-03T22:04:57.355Z,101320.80
2018-02-03T22:07:25.642Z,101323.39
2018-02-03T22:09:53.956Z,101323.95
2018-02-03T22:12:22.250Z,101325.77
2018-02-03T22:14:50.568Z,101331.19
2018-02-03T22:17:18.926Z,101341.27
2018-02-03T22:19:47.232Z,101334.60
2018-02-03T22:22:16.318Z,101346.88
2018-02-03T22:24:45.377Z,101347.31
2018-02-03T22:27:13.712Z,101354.23
2018-02-03T22:29:42.822Z,101359.45
2018-02-03T22:32:11.376Z,101350.64
2018-02-03T22:34:39.750Z,101365.30
2018-02-03T22:37:08.274Z,101368.70
2018-02-03T22:39:36.583Z,101363.01
2018-02-03T22:42:04.873Z,101366.55
2018-02-03T22:44:33.212Z,101371.41
2018-02-03T22:47:02.272Z,101379.55
2018-02-03T22:49:30.942Z,101382.71
2018-02-03T22:51:59.246Z,101384.94
2018-02-03T22:54:27.556Z,101387.33
2018-02-03T22:56:56.636Z,101391.22
2018-02-03T22:59:24.948Z,101408.62
2018-02-03T23:01:53.958Z,101408.00
2018-02-03T23:04:22.300Z,101414.19
2018-02-03T23:06:50.605Z,101418.70
2018-02-03T23:09:19.760Z,101426.63
2018-02-03T23:11:48.060Z,101429.41
2018-02-03T23:14:16.398Z,101431.45
2018-02-03T23:16:44.716Z,101449.09
2018-02-03T23:19:13.032Z,101444.44
2018-02-03T23:21:41.356Z,101459.72
2018-02-03T23:24:09.666Z,101463.47
2018-02-03T23:26:38.028Z,101467.15
2018-02-03T23:29:06.996Z,101469.47
2018-02-03T23:31:35.496Z,101479.97
2018-02-03T23:34:04.028Z,101489.26
2018-02-03T23:36:32.322Z,101489.05
2018-02-03T23:39:01.385Z,101497.31
2018-02-03T23:41:29.736Z,101504.67
2018-02-03T23:43:58.062Z,101507.09
2018-02-03T23:46:26.412Z,101510.22
2018-02-03T23:48:54.747Z,101513.55
2018-02-03T23:51:23.070Z,101516.60
2018-02-03T23:53:51.416Z,101509.88
2018-02-03T23:56:20.469Z,101527.32
2018-02-03T23:58:49.104Z,101519.17
